Time;durP1;ratioP1;P1;durP2;ratioP2;P2;SDS_P1;SDS_P2;PMS_P1;PMS_P2;Temp;Humidity;BMP_temperature;BMP_pressure;BME280_temperature;BME280_humidity;BME280_pressure;Samples;Min_cycle;Max_cycle;Signal;HPM_P1;HPM_P2
2021/12/10 00:00:01;;;;;;;14.82;7.38;;;;;;;;;;4991034;28;20085;-68
2021/12/10 00:02:33;;;;;;;16.23;7.88;;;;;;;;;;4991069;28;20038;-68
2021/12/10 00:04:59;;;;;;;14.40;7.82;;;;;;;;;;4992396;28;20476;-68
2021/12/10 00:07:26;;;;;;;13.23;8.02;;;;;;;;;;4993725;28;20072;-67
2021/12/10 00:09:58;;;;;;;15.45;8.05;;;;;;;;;;4994006;28;20042;-70
2021/12/10 00:12:35;;;;;;;15.57;7.90;;;;;;;;;;4992321;28;20065;-68
2021/12/10 00:15:02;;;;;;;12.77;7.70;;;;;;;;;;4966276;28;20070;-67
2021/12/10 00:17:28;;;;;;;15.48;8.40;;;;;;;;;;4991986;28;20053;-67
2021/12/10 00:19:57;;;;;;;13.70;7.60;;;;;;;;;;4991270;28;20034;-70
2021/12/10 00:22:38;;;;;;;14.57;7.75;;;;;;;;;;4973347;28;20121;-68
2021/12/10 00:25:12;;;;;;;13.93;7.70;;;;;;;;;;4990071;28;20046;-68
2021/12/10 00:27:39;;;;;;;14.07;7.40;;;;;;;;;;4991443;28;20396;-68
2021/12/10 00:30:19;;;;;;;15.30;7.75;;;;;;;;;;4992169;28;20042;-68
2021/12/10 00:32:58;;;;;;;11.88;7.32;;;;;;;;;;4990107;28;20038;-67
2021/12/10 00:35:26;;;;;;;14.27;7.22;;;;;;;;;;4990469;28;20041;-68
2021/12/10 00:37:52;;;;;;;12.38;6.55;;;;;;;;;;4992424;28;20077;-69
2021/12/10 00:40:20;;;;;;;12.30;6.78;;;;;;;;;;4990319;28;20554;-68
2021/12/10 00:42:45;;;;;;;10.95;6.35;;;;;;;;;;4992381;28;20046;-68
2021/12/10 00:45:14;;;;;;;10.50;6.15;;;;;;;;;;4990307;28;20158;-68
2021/12/10 00:47:40;;;;;;;12.43;6.10;;;;;;;;;;4991042;28;20045;-69
2021/12/10 00:50:11;;;;;;;12.10;6.63;;;;;;;;;;4986172;28;20488;-69
2021/12/10 00:52:37;;;;;;;;;;;;;;;;;;4991685;28;20033;-68
2021/12/10 00:55:05;;;;;;;12.73;6.82;;;;;;;;;;4991078;28;19909;-69
2021/12/10 00:57:30;;;;;;;13.25;7.07;;;;;;;;;;4992253;28;20045;-68
2021/12/10 00:59:56;;;;;;;14.00;7.22;;;;;;;;;;4990387;28;20042;-71
2021/12/10 01:02:24;;;;;;;13.38;7.22;;;;;;;;;;4988335;28;20030;-69
2021/12/10 01:04:57;;;;;;;13.38;7.32;;;;;;;;;;4965253;28;20369;-69
2021/12/10 01:07:26;;;;;;;15.20;8.15;;;;;;;;;;4991141;28;20030;-69
2021/12/10 01:09:54;;;;;;;14.18;8.35;;;;;;;;;;4984086;28;20074;-69
2021/12/10 01:12:44;;;;;;;17.60;8.90;;;;;;;;;;4986504;28;20058;-69
2021/12/10 01:28:35;;;;;;;12.98;6.70;;;;;;;;;;4991590;28;20526;-70
2021/12/10 01:31:01;;;;;;;15.23;6.93;;;;;;;;;;4990304;28;20049;-70
2021/12/10 01:33:26;;;;;;;13.48;6.97;;;;;;;;;;4989478;28;20039;-70
2021/12/10 01:35:54;;;;;;;16.73;7.05;;;;;;;;;;4991283;28;20041;-69
2021/12/10 01:38:22;;;;;;;14.90;6.93;;;;;;;;;;4972465;28;20399;-70
2021/12/10 01:40:51;;;;;;;15.18;6.90;;;;;;;;;;4991248;28;20027;-70
2021/12/10 01:43:23;;;;;;;12.50;6.65;;;;;;;;;;4990519;28;20041;-70
2021/12/10 01:45:55;;;;;;;13.90;6.30;;;;;;;;;;4991302;28;20041;-69
2021/12/10 01:48:29;;;;;;;10.95;5.88;;;;;;;;;;4988767;28;20062;-71
2021/12/10 01:50:55;;;;;;;15.20;6.22;;;;;;;;;;4992344;28;20107;-70
2021/12/10 01:53:24;;;;;;;12.07;6.10;;;;;;;;;;4989781;28;20049;-70
2021/12/10 01:55:53;;;;;;;9.93;5.68;;;;;;;;;;4976303;28;20314;-70
2021/12/10 01:58:23;;;;;;;11.15;5.53;;;;;;;;;;4990061;28;20231;-70
2021/12/10 02:00:57;;;;;;;13.25;5.75;;;;;;;;;;4974438;28;20042;-70
2021/12/10 02:03:24;;;;;;;10.82;5.68;;;;;;;;;;4991899;28;20157;-70
2021/12/10 02:05:50;;;;;;;9.98;5.72;;;;;;;;;;4994721;28;20038;-69
2021/12/10 02:08:15;;;;;;;10.50;5.82;;;;;;;;;;4993652;28;20041;-70
2021/12/10 02:10:41;;;;;;;10.07;4.70;;;;;;;;;;4994993;28;20081;-69
2021/12/10 02:13:07;;;;;;;10.98;5.20;;;;;;;;;;4993172;28;20038;-69
2021/12/10 02:15:32;;;;;;;11.10;5.80;;;;;;;;;;4994250;28;20035;-69
2021/12/10 02:17:59;;;;;;;12.50;5.60;;;;;;;;;;4976600;28;20060;-73
2021/12/10 02:20:32;;;;;;;10.15;5.47;;;;;;;;;;4993842;28;20041;-74
2021/12/10 02:23:00;;;;;;;10.57;5.07;;;;;;;;;;4993034;28;20069;-69
2021/12/10 02:25:28;;;;;;;9.40;5.28;;;;;;;;;;4976999;28;20495;-69
2021/12/10 02:27:54;;;;;;;10.90;5.07;;;;;;;;;;4993967;28;20060;-69
2021/12/10 02:30:22;;;;;;;11.38;5.88;;;;;;;;;;4994078;28;20106;-69
2021/12/10 02:32:48;;;;;;;10.75;5.32;;;;;;;;;;4992895;28;20550;-69
2021/12/10 02:35:15;;;;;;;10.18;5.45;;;;;;;;;;4992816;28;20054;-69
2021/12/10 02:37:43;;;;;;;11.27;5.70;;;;;;;;;;4977168;28;20080;-69
2021/12/10 02:40:10;;;;;;;12.52;5.40;;;;;;;;;;4992551;28;20030;-69
2021/12/10 02:42:36;;;;;;;15.85;5.82;;;;;;;;;;4989329;28;20037;-72
2021/12/10 02:45:07;;;;;;;12.07;5.40;;;;;;;;;;4966058;28;20035;-75
2021/12/10 02:47:33;;;;;;;10.50;5.25;;;;;;;;;;4983187;28;20057;-68
2021/12/10 02:50:00;;;;;;;9.93;5.30;;;;;;;;;;4990275;28;20030;-69
2021/12/10 02:52:27;;;;;;;12.43;5.18;;;;;;;;;;4992694;28;20035;-69
2021/12/10 02:54:53;;;;;;;11.05;5.65;;;;;;;;;;4994863;28;20399;-70
2021/12/10 02:57:19;;;;;;;12.32;5.03;;;;;;;;;;4998835;28;20486;-70
2021/12/10 02:59:45;;;;;;;9.00;5.03;;;;;;;;;;4992377;28;20039;-76
2021/12/10 03:02:15;;;;;;;14.52;4.95;;;;;;;;;;4973866;28;20034;-70
2021/12/10 03:04:41;;;;;;;9.25;4.85;;;;;;;;;;4993633;28;20041;-70
2021/12/10 03:07:13;;;;;;;10.93;5.22;;;;;;;;;;4991976;28;20038;-70
2021/12/10 03:09:44;;;;;;;9.85;4.82;;;;;;;;;;4994456;28;20101;-70
2021/12/10 03:12:11;;;;;;;10.77;5.25;;;;;;;;;;4992508;28;20103;-69
2021/12/10 03:14:39;;;;;;;11.80;4.97;;;;;;;;;;4976557;28;20058;-69
2021/12/10 03:17:09;;;;;;;13.95;5.38;;;;;;;;;;4992071;28;20125;-76
2021/12/10 03:19:35;;;;;;;10.07;4.63;;;;;;;;;;4993919;28;20034;-69
2021/12/10 03:22:01;;;;;;;9.93;4.65;;;;;;;;;;4993495;28;20042;-71
2021/12/10 03:24:28;;;;;;;9.82;4.97;;;;;;;;;;4992667;28;20105;-70
2021/12/10 03:26:57;;;;;;;9.13;4.50;;;;;;;;;;4993588;28;20368;-70
2021/12/10 03:29:26;;;;;;;11.48;4.43;;;;;;;;;;4992953;28;20034;-70
2021/12/10 03:31:53;;;;;;;11.60;4.65;;;;;;;;;;4991803;28;20054;-70
2021/12/10 03:34:19;;;;;;;8.50;4.32;;;;;;;;;;4992345;28;20031;-70
2021/12/10 03:36:46;;;;;;;7.05;4.07;;;;;;;;;;4993438;28;20092;-73
2021/12/10 03:39:17;;;;;;;9.45;4.15;;;;;;;;;;4993501;28;20034;-70
2021/12/10 03:41:42;;;;;;;;;;;;;;;;;;4993122;28;20125;-71
2021/12/10 03:44:09;;;;;;;11.50;4.10;;;;;;;;;;4992013;28;20008;-70
2021/12/10 03:46:35;;;;;;;10.65;4.30;;;;;;;;;;4992736;28;20062;-70
2021/12/10 03:49:03;;;;;;;12.68;4.45;;;;;;;;;;4978221;28;20084;-70
2021/12/10 03:51:30;;;;;;;9.27;4.20;;;;;;;;;;4986191;28;20157;-74
2021/12/10 03:53:56;;;;;;;10.55;4.20;;;;;;;;;;4984770;28;20322;-70
2021/12/10 03:56:25;;;;;;;9.15;4.20;;;;;;;;;;4989317;28;20053;-70
2021/12/10 03:58:52;;;;;;;8.85;3.78;;;;;;;;;;4976203;28;20487;-69
2021/12/10 04:01:22;;;;;;;7.20;3.78;;;;;;;;;;4993165;28;20092;-69
2021/12/10 04:03:49;;;;;;;8.85;3.67;;;;;;;;;;4991203;28;20392;-69
2021/12/10 04:06:15;;;;;;;11.00;3.65;;;;;;;;;;4990568;28;20435;-69
2021/12/10 04:08:41;;;;;;;8.95;3.88;;;;;;;;;;4975598;28;20113;-69
2021/12/10 04:11:08;;;;;;;11.48;4.05;;;;;;;;;;4991085;28;20389;-74
2021/12/10 04:13:34;;;;;;;7.85;4.15;;;;;;;;;;4991334;28;20472;-69
2021/12/10 04:16:00;;;;;;;7.13;4.00;;;;;;;;;;4975336;28;20088;-68
2021/12/10 04:18:25;;;;;;;10.27;4.45;;;;;;;;;;4991320;28;20295;-69
2021/12/10 04:20:51;;;;;;;9.65;3.72;;;;;;;;;;4976105;28;20129;-69
2021/12/10 04:23:19;;;;;;;11.23;4.40;;;;;;;;;;4974204;28;20117;-69
2021/12/10 04:25:45;;;;;;;10.00;4.03;;;;;;;;;;4992871;28;20042;-69
2021/12/10 04:28:13;;;;;;;12.18;4.65;;;;;;;;;;4992253;28;20109;-69
2021/12/10 04:30:42;;;;;;;13.73;3.50;;;;;;;;;;4992940;28;20437;-68
2021/12/10 04:33:12;;;;;;;8.95;3.42;;;;;;;;;;4992196;28;20023;-74
2021/12/10 04:35:38;;;;;;;11.18;3.63;;;;;;;;;;4975717;28;20034;-69
2021/12/10 04:38:04;;;;;;;9.18;3.10;;;;;;;;;;4993117;28;20084;-68
2021/12/10 04:40:29;;;;;;;7.65;3.20;;;;;;;;;;4992228;28;20325;-69
2021/12/10 04:42:55;;;;;;;10.27;3.20;;;;;;;;;;4992385;28;20523;-68
2021/12/10 04:45:21;;;;;;;8.70;2.97;;;;;;;;;;4992180;28;20031;-68
2021/12/10 04:47:48;;;;;;;9.63;3.30;;;;;;;;;;4992487;28;20108;-68
2021/12/10 04:50:16;;;;;;;7.97;2.97;;;;;;;;;;4993453;28;20480;-69
2021/12/10 04:52:42;;;;;;;8.23;2.97;;;;;;;;;;4977000;28;20112;-69
2021/12/10 04:55:11;;;;;;;13.55;3.10;;;;;;;;;;4993983;28;20054;-74
2021/12/10 04:57:37;;;;;;;9.73;3.13;;;;;;;;;;4992047;28;20049;-69
2021/12/10 05:00:06;;;;;;;6.15;2.92;;;;;;;;;;4992953;28;20033;-68
2021/12/10 05:02:34;;;;;;;11.18;3.10;;;;;;;;;;4990274;28;20137;-69
2021/12/10 05:04:59;;;;;;;7.18;2.53;;;;;;;;;;4975613;28;20460;-68
2021/12/10 05:07:29;;;;;;;8.60;2.78;;;;;;;;;;4991621;28;20038;-68
2021/12/10 05:09:56;;;;;;;7.68;2.83;;;;;;;;;;4992136;28;20073;-68
2021/12/10 05:12:21;;;;;;;11.57;3.17;;;;;;;;;;4990678;28;20093;-68
2021/12/10 05:14:47;;;;;;;12.00;3.17;;;;;;;;;;4975117;28;20034;-68
2021/12/10 05:17:12;;;;;;;7.78;2.97;;;;;;;;;;4991781;28;20062;-72
2021/12/10 05:19:39;;;;;;;9.88;3.38;;;;;;;;;;4991654;28;20029;-68
2021/12/10 05:22:09;;;;;;;8.05;3.22;;;;;;;;;;4992286;28;20047;-69
2021/12/10 05:24:35;;;;;;;8.38;2.92;;;;;;;;;;4982953;28;20034;-68
2021/12/10 05:27:01;;;;;;;8.70;3.50;;;;;;;;;;4992076;28;20364;-67
2021/12/10 05:29:28;;;;;;;12.68;3.13;;;;;;;;;;4991509;28;20036;-68
2021/12/10 05:31:55;;;;;;;7.32;3.00;;;;;;;;;;4974289;28;20033;-68
2021/12/10 05:34:21;;;;;;;7.00;2.60;;;;;;;;;;4991590;28;20061;-68
2021/12/10 05:36:46;;;;;;;9.55;2.65;;;;;;;;;;4974306;28;20464;-68
2021/12/10 05:39:14;;;;;;;9.30;2.35;;;;;;;;;;4991666;28;20041;-72
2021/12/10 05:41:40;;;;;;;9.15;2.42;;;;;;;;;;4992020;28;20045;-68
2021/12/10 05:44:05;;;;;;;7.15;2.35;;;;;;;;;;4991891;28;20034;-66
2021/12/10 05:46:31;;;;;;;12.40;2.75;;;;;;;;;;4991268;28;20026;-68
2021/12/10 05:48:58;;;;;;;8.38;2.58;;;;;;;;;;4974261;28;20194;-67
2021/12/10 05:51:23;;;;;;;7.05;2.20;;;;;;;;;;4991205;28;20443;-68
2021/12/10 05:53:50;;;;;;;9.73;2.45;;;;;;;;;;4991669;28;20034;-68
2021/12/10 05:56:17;;;;;;;8.38;2.58;;;;;;;;;;4972863;28;20038;-68
2021/12/10 05:58:42;;;;;;;7.07;2.42;;;;;;;;;;4990627;28;20361;-68
2021/12/10 06:01:11;;;;;;;8.68;2.42;;;;;;;;;;4997922;28;20076;-70
2021/12/10 06:03:39;;;;;;;8.20;2.17;;;;;;;;;;4994975;28;20038;-62
2021/12/10 06:06:07;;;;;;;8.73;2.50;;;;;;;;;;4992202;28;20034;-62
2021/12/10 06:08:32;;;;;;;7.70;2.13;;;;;;;;;;4989336;28;20030;-64
2021/12/10 06:10:59;;;;;;;9.68;2.60;;;;;;;;;;4991105;28;20061;-64
2021/12/10 06:13:25;;;;;;;7.15;2.22;;;;;;;;;;4971466;28;20038;-69
2021/12/10 06:15:51;;;;;;;8.80;2.45;;;;;;;;;;4988221;28;20030;-71
2021/12/10 06:18:16;;;;;;;5.88;2.38;;;;;;;;;;4990697;28;20026;-76
2021/12/10 06:20:46;;;;;;;8.05;2.72;;;;;;;;;;4991377;28;20037;-72
2021/12/10 06:23:12;;;;;;;7.80;2.70;;;;;;;;;;4974169;28;20034;-75
2021/12/10 06:25:38;;;;;;;8.05;2.83;;;;;;;;;;4990647;28;20031;-73
2021/12/10 06:28:05;;;;;;;9.77;2.75;;;;;;;;;;4974197;28;20027;-69
2021/12/10 06:30:35;;;;;;;10.63;2.83;;;;;;;;;;4972965;28;20030;-71
2021/12/10 06:33:03;;;;;;;8.83;3.17;;;;;;;;;;4991564;28;20471;-72
2021/12/10 06:35:30;;;;;;;17.05;2.97;;;;;;;;;;4990725;28;20779;-72
2021/12/10 06:37:58;;;;;;;7.85;2.50;;;;;;;;;;4990104;28;20244;-70
2021/12/10 06:40:27;;;;;;;7.90;2.70;;;;;;;;;;4990455;28;20117;-72
2021/12/10 06:42:53;;;;;;;6.82;2.58;;;;;;;;;;4991103;28;20041;-72
2021/12/10 06:45:22;;;;;;;9.85;2.78;;;;;;;;;;4989349;28;20038;-67
2021/12/10 06:47:50;;;;;;;7.20;2.90;;;;;;;;;;4990372;28;20038;-73
2021/12/10 06:50:22;;;;;;;9.35;2.83;;;;;;;;;;4992516;28;20459;-72
2021/12/10 06:52:48;;;;;;;10.43;2.80;;;;;;;;;;4988977;28;20049;-70
2021/12/10 06:55:14;;;;;;;11.18;3.20;;;;;;;;;;4994273;28;20042;-72
2021/12/10 06:57:40;;;;;;;10.52;3.15;;;;;;;;;;4994614;28;20077;-68
2021/12/10 07:00:14;;;;;;;8.63;2.85;;;;;;;;;;4993036;28;20034;-67
2021/12/10 07:02:39;;;;;;;9.40;3.20;;;;;;;;;;4993953;28;20112;-67
2021/12/10 07:05:05;;;;;;;8.98;3.20;;;;;;;;;;4993138;28;20126;-69
2021/12/10 07:07:32;;;;;;;10.88;4.15;;;;;;;;;;4974745;28;20053;-72
2021/12/10 07:09:59;;;;;;;10.15;3.53;;;;;;;;;;4976962;28;20027;-73
2021/12/10 07:12:25;;;;;;;11.00;3.15;;;;;;;;;;4974603;28;20420;-72
2021/12/10 07:14:50;;;;;;;11.73;3.28;;;;;;;;;;4993888;28;20042;-70
2021/12/10 07:17:16;;;;;;;8.88;3.20;;;;;;;;;;4993559;28;20046;-70
2021/12/10 07:19:42;;;;;;;11.10;3.05;;;;;;;;;;4993759;28;20029;-72
2021/12/10 07:22:07;;;;;;;8.15;3.15;;;;;;;;;;4992356;28;20088;-71
2021/12/10 07:24:33;;;;;;;6.88;3.00;;;;;;;;;;4993350;28;20408;-73
2021/12/10 07:26:59;;;;;;;10.20;3.00;;;;;;;;;;4993964;28;20045;-71
2021/12/10 07:29:26;;;;;;;9.00;3.28;;;;;;;;;;4993616;28;20037;-71
2021/12/10 07:31:51;;;;;;;9.38;3.00;;;;;;;;;;4976482;28;20484;-72
2021/12/10 07:34:17;;;;;;;9.50;3.38;;;;;;;;;;4993560;28;20037;-72
2021/12/10 07:36:43;;;;;;;9.60;3.70;;;;;;;;;;4976071;28;20034;-71
2021/12/10 07:39:09;;;;;;;10.68;3.45;;;;;;;;;;4994154;28;20034;-74
2021/12/10 07:41:35;;;;;;;13.15;3.67;;;;;;;;;;4991763;28;20038;-66
2021/12/10 07:44:01;;;;;;;10.05;3.78;;;;;;;;;;4974447;28;20432;-67
2021/12/10 07:46:28;;;;;;;13.23;3.63;;;;;;;;;;4975157;28;20034;-69
2021/12/10 07:48:55;;;;;;;13.43;3.58;;;;;;;;;;4978193;28;20108;-70
2021/12/10 07:51:25;;;;;;;9.98;3.83;;;;;;;;;;4992114;28;20034;-71
2021/12/10 07:53:57;;;;;;;10.50;3.53;;;;;;;;;;4992708;28;20076;-68
2021/12/10 07:56:26;;;;;;;12.82;3.70;;;;;;;;;;4991494;28;20034;-73
2021/12/10 07:58:53;;;;;;;11.73;3.60;;;;;;;;;;4993997;28;20129;-69
2021/12/10 08:01:24;;;;;;;10.98;3.58;;;;;;;;;;4991029;28;20045;-72
2021/12/10 08:03:50;;;;;;;10.38;3.50;;;;;;;;;;4975572;28;20524;-71
2021/12/10 08:06:18;;;;;;;10.05;3.38;;;;;;;;;;4993284;28;20038;-72
2021/12/10 08:08:44;;;;;;;7.80;2.95;;;;;;;;;;4975306;28;20042;-71
2021/12/10 08:11:10;;;;;;;10.73;3.30;;;;;;;;;;4993198;28;20108;-72
2021/12/10 08:13:35;;;;;;;7.88;3.33;;;;;;;;;;4992598;28;20097;-72
2021/12/10 08:16:00;;;;;;;10.90;3.42;;;;;;;;;;4991996;28;20436;-72
2021/12/10 08:18:26;;;;;;;9.23;3.78;;;;;;;;;;4992884;28;20041;-68
2021/12/10 08:20:52;;;;;;;8.35;3.17;;;;;;;;;;4993557;28;20523;-71
2021/12/10 08:23:19;;;;;;;9.05;3.08;;;;;;;;;;4975228;28;20044;-71
2021/12/10 08:25:46;;;;;;;10.00;3.17;;;;;;;;;;4990802;28;20399;-69
2021/12/10 08:28:11;;;;;;;10.50;3.28;;;;;;;;;;4992729;28;20026;-70
2021/12/10 08:30:38;;;;;;;13.65;3.00;;;;;;;;;;4992536;28;20052;-69
2021/12/10 08:33:11;;;;;;;7.45;3.10;;;;;;;;;;4975313;28;20387;-66
2021/12/10 08:35:36;;;;;;;6.15;2.85;;;;;;;;;;4992056;28;20102;-70
2021/12/10 08:38:02;;;;;;;8.63;3.20;;;;;;;;;;4992838;28;20065;-69
2021/12/10 08:40:36;;;;;;;9.70;3.20;;;;;;;;;;4992210;28;20037;-72
2021/12/10 08:43:03;;;;;;;9.23;3.10;;;;;;;;;;4975179;28;20353;-70
2021/12/10 08:45:30;;;;;;;10.15;3.45;;;;;;;;;;4990572;28;20365;-71
2021/12/10 08:47:55;;;;;;;9.68;3.45;;;;;;;;;;4974589;28;20026;-69
2021/12/10 08:50:23;;;;;;;8.98;3.50;;;;;;;;;;4991966;28;20026;-69
2021/12/10 08:52:56;;;;;;;10.00;3.75;;;;;;;;;;4992595;28;20077;-69
2021/12/10 08:55:23;;;;;;;8.23;3.28;;;;;;;;;;4991701;28;20061;-69
2021/12/10 08:57:49;;;;;;;10.63;3.20;;;;;;;;;;4974556;28;20088;-70
2021/12/10 09:00:15;;;;;;;10.73;3.58;;;;;;;;;;4992206;28;20034;-67
2021/12/10 09:02:41;;;;;;;11.20;3.33;;;;;;;;;;4989781;28;20026;-67
2021/12/10 09:05:09;;;;;;;8.50;3.05;;;;;;;;;;4991701;28;20121;-64
2021/12/10 09:07:35;;;;;;;7.63;3.08;;;;;;;;;;4991089;28;20030;-65
2021/12/10 09:10:01;;;;;;;7.47;3.25;;;;;;;;;;4992371;28;20026;-70
2021/12/10 09:12:27;;;;;;;9.73;3.33;;;;;;;;;;4990915;28;20054;-68
2021/12/10 09:14:55;;;;;;;9.73;3.10;;;;;;;;;;4992262;28;20030;-68
2021/12/10 09:17:25;;;;;;;9.10;3.25;;;;;;;;;;4990691;28;20041;-71
2021/12/10 09:19:52;;;;;;;9.98;3.33;;;;;;;;;;4992246;28;20084;-67
2021/12/10 09:22:19;;;;;;;8.45;3.30;;;;;;;;;;4991447;28;20037;-70
2021/12/10 09:24:46;;;;;;;15.05;3.47;;;;;;;;;;4974253;28;20031;-66
2021/12/10 09:27:12;;;;;;;8.13;3.28;;;;;;;;;;4991628;28;20053;-66
2021/12/10 09:29:41;;;;;;;9.30;3.30;;;;;;;;;;4990812;28;20064;-67
2021/12/10 09:32:11;;;;;;;8.43;3.28;;;;;;;;;;4991609;28;20330;-64
2021/12/10 09:34:37;;;;;;;8.38;3.08;;;;;;;;;;4990491;28;20030;-64
2021/12/10 09:37:03;;;;;;;9.48;3.10;;;;;;;;;;4992081;28;20038;-65
2021/12/10 09:39:31;;;;;;;9.82;3.40;;;;;;;;;;4991334;28;20109;-68
2021/12/10 09:41:57;;;;;;;6.53;2.60;;;;;;;;;;4991970;28;20042;-67
2021/12/10 09:44:23;;;;;;;6.88;2.90;;;;;;;;;;4990686;28;20030;-70
2021/12/10 09:46:51;;;;;;;8.38;2.85;;;;;;;;;;4992122;28;20057;-65
2021/12/10 09:49:19;;;;;;;6.95;2.90;;;;;;;;;;4991376;28;20034;-65
2021/12/10 09:51:49;;;;;;;12.70;3.60;;;;;;;;;;4991000;28;20065;-64
2021/12/10 09:54:19;;;;;;;7.33;2.70;;;;;;;;;;4991163;28;20034;-66
2021/12/10 09:56:53;;;;;;;7.03;2.65;;;;;;;;;;4967267;28;20109;-64
2021/12/10 09:59:19;;;;;;;6.22;2.72;;;;;;;;;;4990424;28;20392;-64
2021/12/10 10:01:47;;;;;;;7.72;2.53;;;;;;;;;;4991158;28;20026;-65
2021/12/10 10:04:18;;;;;;;5.20;2.55;;;;;;;;;;4991717;28;20057;-65
2021/12/10 10:06:51;;;;;;;5.18;2.40;;;;;;;;;;4990608;28;20041;-65
2021/12/10 10:09:19;;;;;;;6.38;2.33;;;;;;;;;;4990792;28;20069;-63
2021/12/10 10:11:46;;;;;;;10.20;2.70;;;;;;;;;;4990334;28;20050;-65
2021/12/10 10:14:12;;;;;;;8.07;2.83;;;;;;;;;;4991443;28;20026;-65
2021/12/10 10:16:43;;;;;;;6.40;2.38;;;;;;;;;;4990912;28;20467;-66
2021/12/10 10:19:08;;;;;;;6.80;2.58;;;;;;;;;;4991812;28;20116;-64
2021/12/10 10:21:39;;;;;;;8.65;2.60;;;;;;;;;;4973593;28;20078;-65
2021/12/10 10:24:05;;;;;;;8.90;2.17;;;;;;;;;;4974200;28;20085;-67
2021/12/10 10:26:38;;;;;;;4.95;1.90;;;;;;;;;;4975571;28;20110;-66
2021/12/10 10:29:14;;;;;;;5.35;2.13;;;;;;;;;;4995595;28;20035;-64
2021/12/10 10:31:49;;;;;;;5.95;2.13;;;;;;;;;;4975741;28;20034;-63
2021/12/10 10:34:14;;;;;;;4.57;2.10;;;;;;;;;;4993568;28;20038;-63
2021/12/10 10:36:40;;;;;;;7.30;2.08;;;;;;;;;;4994187;28;20026;-63
2021/12/10 10:39:16;;;;;;;5.70;2.10;;;;;;;;;;4993604;28;20038;-66
2021/12/10 10:41:53;;;;;;;4.20;2.08;;;;;;;;;;4994077;28;20045;-66
2021/12/10 10:44:20;;;;;;;6.68;1.70;;;;;;;;;;4994604;28;20045;-64
2021/12/10 10:46:46;;;;;;;7.78;2.25;;;;;;;;;;4994377;28;20088;-68
2021/12/10 10:49:33;;;;;;;4.93;2.22;;;;;;;;;;4976480;28;20026;-68
2021/12/10 10:52:16;;;;;;;5.75;2.35;;;;;;;;;;4994973;28;20034;-67
2021/12/10 10:54:43;;;;;;;4.43;1.98;;;;;;;;;;4976431;28;20563;-67
2021/12/10 10:57:31;;;;;;;5.90;2.22;;;;;;;;;;4994844;28;20045;-69
2021/12/10 11:00:12;;;;;;;5.03;1.83;;;;;;;;;;4993867;28;20037;-68
2021/12/10 11:02:48;;;;;;;6.57;2.22;;;;;;;;;;4993544;28;20116;-66
2021/12/10 11:05:14;;;;;;;5.85;1.80;;;;;;;;;;4994309;28;20034;-65
2021/12/10 11:07:52;;;;;;;4.53;1.98;;;;;;;;;;4994044;28;20104;-65
2021/12/10 11:10:34;;;;;;;6.47;2.10;;;;;;;;;;4977401;28;20502;-67
2021/12/10 11:13:14;;;;;;;6.25;2.35;;;;;;;;;;4994432;28;20034;-67
2021/12/10 11:16:07;;;;;;;4.57;1.83;;;;;;;;;;4993005;28;20383;-63
2021/12/10 11:18:51;;;;;;;8.23;2.08;;;;;;;;;;4975066;28;20037;-66
2021/12/10 11:21:51;;;;;;;4.40;2.10;;;;;;;;;;4976986;28;20034;-64
2021/12/10 11:24:25;;;;;;;3.40;1.77;;;;;;;;;;4994022;28;20070;-64
2021/12/10 11:26:57;;;;;;;4.97;1.60;;;;;;;;;;4994311;28;20034;-64
2021/12/10 11:29:51;;;;;;;5.90;1.90;;;;;;;;;;4994159;28;20084;-64
2021/12/10 11:32:26;;;;;;;8.23;2.35;;;;;;;;;;4994096;28;20034;-64
2021/12/10 11:34:56;;;;;;;3.30;1.63;;;;;;;;;;4991455;28;20030;-64
2021/12/10 11:37:59;;;;;;;5.30;2.03;;;;;;;;;;4976343;28;20058;-64
2021/12/10 11:40:40;;;;;;;5.38;1.77;;;;;;;;;;4994106;28;20027;-66
2021/12/10 11:46:27;;;;;;;4.40;1.80;;;;;;;;;;5013167;28;20431;-64
2021/12/10 11:49:21;;;;;;;6.78;1.90;;;;;;;;;;4993373;28;20039;-68
2021/12/10 11:52:09;;;;;;;6.30;2.05;;;;;;;;;;4992851;28;20234;-67
2021/12/10 11:54:41;;;;;;;5.32;2.10;;;;;;;;;;4987156;28;20045;-65
2021/12/10 11:57:17;;;;;;;5.80;2.22;;;;;;;;;;4993538;28;20031;-66
2021/12/10 11:59:54;;;;;;;9.40;2.00;;;;;;;;;;4981141;28;20137;-66
2021/12/10 12:02:30;;;;;;;4.13;1.63;;;;;;;;;;4993501;28;20083;-67
2021/12/10 12:05:06;;;;;;;4.82;1.75;;;;;;;;;;4993233;28;20129;-68
2021/12/10 12:07:51;;;;;;;5.15;1.80;;;;;;;;;;4992567;28;20105;-68
2021/12/10 12:10:54;;;;;;;2.95;1.63;;;;;;;;;;4993745;28;20061;-67
2021/12/10 12:16:01;;;;;;;4.18;1.60;;;;;;;;;;4993135;28;20069;-67
2021/12/10 12:18:33;;;;;;;6.57;1.80;;;;;;;;;;4975280;28;20038;-69
2021/12/10 12:22:13;;;;;;;5.55;1.65;;;;;;;;;;4993349;28;20077;-67
2021/12/10 12:27:08;;;;;;;4.95;1.67;;;;;;;;;;4981772;28;20128;-66
2021/12/10 12:29:37;;;;;;;6.22;1.63;;;;;;;;;;4991154;28;20027;-67
2021/12/10 12:32:10;;;;;;;4.35;1.67;;;;;;;;;;4992818;28;20030;-66
2021/12/10 12:34:36;;;;;;;4.18;1.60;;;;;;;;;;4992147;28;20038;-67
2021/12/10 12:37:04;;;;;;;3.40;1.45;;;;;;;;;;4974686;28;20044;-67
2021/12/10 12:39:38;;;;;;;5.53;1.50;;;;;;;;;;4992101;28;20034;-68
2021/12/10 12:42:27;;;;;;;7.10;1.60;;;;;;;;;;4992391;28;20037;-67
2021/12/10 12:45:17;;;;;;;2.50;1.50;;;;;;;;;;4992045;28;20031;-67
2021/12/10 12:47:45;;;;;;;7.57;2.08;;;;;;;;;;4990851;28;20084;-67
2021/12/10 12:50:20;;;;;;;4.85;1.52;;;;;;;;;;4974635;28;20142;-66
2021/12/10 12:52:54;;;;;;;4.32;1.60;;;;;;;;;;4982561;28;20099;-67
2021/12/10 12:55:43;;;;;;;7.30;1.65;;;;;;;;;;4991805;28;20034;-66
2021/12/10 12:58:30;;;;;;;9.68;1.90;;;;;;;;;;4992299;28;20037;-66
2021/12/10 13:01:22;;;;;;;5.38;1.60;;;;;;;;;;4991716;28;20105;-67
2021/12/10 13:03:59;;;;;;;6.55;1.50;;;;;;;;;;4989480;28;20122;-67
2021/12/10 13:06:47;;;;;;;8.07;1.90;;;;;;;;;;4974944;28;20035;-67
2021/12/10 13:09:20;;;;;;;6.57;2.10;;;;;;;;;;4974114;28;20069;-64
2021/12/10 13:11:57;;;;;;;6.05;2.33;;;;;;;;;;4991174;28;20847;-66
2021/12/10 13:14:32;;;;;;;8.75;2.35;;;;;;;;;;4992414;28;20039;-66
2021/12/10 13:17:14;;;;;;;6.43;2.20;;;;;;;;;;4992290;28;20061;-66
2021/12/10 13:19:40;;;;;;;4.10;1.98;;;;;;;;;;4991809;28;20109;-66
2021/12/10 13:22:13;;;;;;;5.05;2.30;;;;;;;;;;4991963;28;20145;-66
2021/12/10 13:24:42;;;;;;;4.88;2.20;;;;;;;;;;4990567;28;20046;-66
2021/12/10 13:27:09;;;;;;;7.18;2.65;;;;;;;;;;4974390;28;20499;-65
2021/12/10 13:29:36;;;;;;;6.85;2.40;;;;;;;;;;4991553;28;20034;-67
2021/12/10 13:32:04;;;;;;;7.43;2.03;;;;;;;;;;4973783;28;20532;-66
2021/12/10 13:34:30;;;;;;;7.38;2.00;;;;;;;;;;4991190;28;20034;-69
2021/12/10 13:37:01;;;;;;;7.70;2.05;;;;;;;;;;4992249;28;20560;-68
2021/12/10 13:39:28;;;;;;;3.97;1.77;;;;;;;;;;4990268;28;20030;-68
2021/12/10 13:41:54;;;;;;;9.18;2.20;;;;;;;;;;4991598;28;20037;-64
2021/12/10 13:47:02;;;;;;;7.40;2.60;;;;;;;;;;4991996;28;20184;-65
2021/12/10 13:49:50;;;;;;;4.82;2.25;;;;;;;;;;4991621;28;20050;-71
2021/12/10 13:52:39;;;;;;;4.55;2.10;;;;;;;;;;4992010;28;20129;-65
2021/12/10 13:55:19;;;;;;;5.00;2.22;;;;;;;;;;4990843;28;20050;-65
2021/12/10 13:58:04;;;;;;;9.43;2.25;;;;;;;;;;4991315;28;20088;-67
2021/12/10 14:00:30;;;;;;;8.73;3.15;;;;;;;;;;4994711;28;20034;-69
2021/12/10 14:02:55;;;;;;;8.73;3.00;;;;;;;;;;4994389;28;20403;-64
2021/12/10 14:05:28;;;;;;;7.55;2.45;;;;;;;;;;4977548;28;20042;-65
2021/12/10 14:08:07;;;;;;;7.57;2.80;;;;;;;;;;4995922;28;20041;-66
2021/12/10 14:10:37;;;;;;;7.75;2.30;;;;;;;;;;4994995;28;20033;-66
2021/12/10 14:13:05;;;;;;;7.80;2.20;;;;;;;;;;4978212;28;20065;-65
2021/12/10 14:16:00;;;;;;;6.53;2.50;;;;;;;;;;4977935;28;20030;-66
2021/12/10 14:18:29;;;;;;;5.57;2.53;;;;;;;;;;4981899;28;20065;-64
2021/12/10 14:21:05;;;;;;;4.18;2.05;;;;;;;;;;4999640;28;20499;-63
2021/12/10 14:23:35;;;;;;;5.57;2.10;;;;;;;;;;4978737;28;20034;-68
2021/12/10 14:26:14;;;;;;;7.15;2.00;;;;;;;;;;4981753;28;20034;-65
2021/12/10 14:28:44;;;;;;;5.75;2.10;;;;;;;;;;4995206;28;20045;-65
2021/12/10 14:31:14;;;;;;;6.93;2.33;;;;;;;;;;4994849;28;20460;-65
2021/12/10 14:33:43;;;;;;;7.45;2.40;;;;;;;;;;4993922;28;20034;-65
2021/12/10 14:36:10;;;;;;;8.68;2.22;;;;;;;;;;4994950;28;20117;-65
2021/12/10 14:38:46;;;;;;;8.90;2.38;;;;;;;;;;4976750;28;20466;-65
2021/12/10 14:41:28;;;;;;;6.60;2.50;;;;;;;;;;4994851;28;20034;-65
2021/12/10 14:44:13;;;;;;;9.98;4.03;;;;;;;;;;4994577;28;20034;-65
2021/12/10 14:46:58;;;;;;;13.25;6.28;;;;;;;;;;4976809;28;20049;-66
2021/12/10 14:49:35;;;;;;;11.90;4.50;;;;;;;;;;4993817;28;20480;-67
2021/12/10 14:52:10;;;;;;;8.57;3.78;;;;;;;;;;4977874;28;20080;-67
2021/12/10 14:55:12;;;;;;;8.23;3.10;;;;;;;;;;4993756;28;20033;-67
2021/12/10 14:57:58;;;;;;;9.63;4.38;;;;;;;;;;4987377;28;20061;-65
2021/12/10 15:00:26;;;;;;;8.45;3.42;;;;;;;;;;4994893;28;20106;-65
2021/12/10 15:03:15;;;;;;;13.10;3.70;;;;;;;;;;4975378;28;20330;-65
2021/12/10 15:05:59;;;;;;;11.48;4.25;;;;;;;;;;4994042;28;20137;-66
2021/12/10 15:08:51;;;;;;;9.07;4.15;;;;;;;;;;4994522;28;20409;-64
2021/12/10 15:11:29;;;;;;;9.30;4.32;;;;;;;;;;4993716;28;20078;-64
2021/12/10 15:14:08;;;;;;;6.50;3.47;;;;;;;;;;4993565;28;20042;-66
2021/12/10 15:16:38;;;;;;;10.10;4.03;;;;;;;;;;4993804;28;20030;-67
2021/12/10 15:19:09;;;;;;;9.70;3.67;;;;;;;;;;4993460;28;20042;-65
2021/12/10 15:21:40;;;;;;;11.02;3.92;;;;;;;;;;4995133;28;20465;-65